createdAt,value
2023-04-03T00:00:01.951Z,100.00
2023-04-03T00:02:31.677Z,100.00
2023-04-03T00:05:01.824Z,100.00
2023-04-03T00:07:37.572Z,100.00
2023-04-03T00:10:11.878Z,100.00
2023-04-03T00:12:41.477Z,100.00
2023-04-03T00:15:12.027Z,100.00
2023-04-03T00:17:41.667Z,100.00
2023-04-03T00:20:12.210Z,100.00
2023-04-03T00:22:41.764Z,100.00
2023-04-03T00:25:14.232Z,100.00
2023-04-03T00:27:44.666Z,100.00
2023-04-03T00:30:17.908Z,100.00
2023-04-03T00:32:47.798Z,100.00
2023-04-03T00:35:17.444Z,100.00
2023-04-03T00:37:47.450Z,100.00
2023-04-03T00:40:19.868Z,100.00
2023-04-03T00:42:51.921Z,100.00
2023-04-03T00:45:30.416Z,100.00
2023-04-03T00:48:01.028Z,100.00
2023-04-03T00:50:31.390Z,100.00
2023-04-03T00:53:01.758Z,100.00
2023-04-03T00:55:34.410Z,100.00
2023-04-03T00:58:05.590Z,100.00
2023-04-03T01:00:35.515Z,100.00
2023-04-03T01:03:05.529Z,100.00
2023-04-03T01:05:35.740Z,100.00
2023-04-03T01:08:05.683Z,100.00
2023-04-03T01:10:38.180Z,100.00
2023-04-03T01:13:22.626Z,100.00
2023-04-03T01:15:52.510Z,100.00
2023-04-03T01:18:22.172Z,100.00
2023-04-03T01:21:17.966Z,100.00
2023-04-03T01:24:04.010Z,100.00
2023-04-03T01:26:36.952Z,100.00
2023-04-03T01:29:07.557Z,100.00
2023-04-03T01:31:56.690Z,100.00
2023-04-03T01:34:27.757Z,100.00
2023-04-03T01:36:57.680Z,100.00
2023-04-03T01:39:27.639Z,100.00
2023-04-03T01:41:57.429Z,100.00
2023-04-03T01:44:26.969Z,100.00
2023-04-03T01:46:59.159Z,100.00
2023-04-03T01:49:28.817Z,100.00
2023-04-03T01:51:58.473Z,100.00
2023-04-03T01:54:28.184Z,100.00
2023-04-03T01:56:57.812Z,100.00
2023-04-03T01:59:27.650Z,100.00
2023-04-03T02:01:59.798Z,100.00
2023-04-03T02:04:29.391Z,100.00
2023-04-03T02:06:59.025Z,100.00
2023-04-03T02:09:28.659Z,100.00
2023-04-03T02:11:58.196Z,100.00
2023-04-03T02:14:28.621Z,100.00
2023-04-03T02:17:01.893Z,100.00
2023-04-03T02:19:31.530Z,100.00
2023-04-03T02:22:01.121Z,100.00
2023-04-03T02:24:30.803Z,100.00
2023-04-03T02:27:00.932Z,100.00
2023-04-03T02:29:30.597Z,100.00
2023-04-03T02:32:05.466Z,100.00
2023-04-03T02:34:35.041Z,100.00
2023-04-03T02:37:04.599Z,100.00
2023-04-03T02:39:34.144Z,100.00
2023-04-03T02:42:03.678Z,100.00
2023-04-03T02:44:33.308Z,100.00
2023-04-03T02:47:05.725Z,100.00
2023-04-03T02:49:35.527Z,100.00
2023-04-03T02:52:05.100Z,100.00
2023-04-03T02:54:34.638Z,100.00
2023-04-03T02:57:04.532Z,100.00
2023-04-03T02:59:34.121Z,100.00
2023-04-03T03:02:06.365Z,100.00
2023-04-03T03:04:35.932Z,100.00
2023-04-03T03:07:07.446Z,100.00
2023-04-03T03:09:37.274Z,100.00
2023-04-03T03:12:07.424Z,100.00
2023-04-03T03:14:36.990Z,100.00
2023-04-03T03:17:09.140Z,100.00
2023-04-03T03:19:38.777Z,100.00
2023-04-03T03:22:08.361Z,100.00
2023-04-03T03:24:37.971Z,100.00
2023-04-03T03:27:07.541Z,100.00
2023-04-03T03:29:37.092Z,100.00
2023-04-03T03:32:12.692Z,100.00
2023-04-03T03:34:42.403Z,100.00
2023-04-03T03:37:11.960Z,100.00
2023-04-03T03:39:41.562Z,100.00
2023-04-03T03:42:11.168Z,100.00
2023-04-03T03:44:40.754Z,100.00
2023-04-03T03:47:13.408Z,100.00
2023-04-03T03:49:42.963Z,100.00
2023-04-03T03:52:12.779Z,100.00
2023-04-03T03:54:42.299Z,100.00
2023-04-03T03:57:12.327Z,100.00
2023-04-03T03:59:42.991Z,100.00
2023-04-03T04:02:19.002Z,100.00
2023-04-03T04:04:48.553Z,100.00
2023-04-03T04:07:18.188Z,100.00
2023-04-03T04:09:47.826Z,100.00
2023-04-03T04:12:17.484Z,100.00
2023-04-03T04:14:47.864Z,100.00
2023-04-03T04:17:20.127Z,100.00
2023-04-03T04:19:49.689Z,100.00
2023-04-03T04:22:19.214Z,100.00
2023-04-03T04:24:48.776Z,100.00
2023-04-03T04:27:18.596Z,100.00
2023-04-03T04:29:48.134Z,100.00
2023-04-03T04:32:29.157Z,100.00
2023-04-03T04:34:58.734Z,100.00
2023-04-03T04:37:28.437Z,100.00
2023-04-03T04:39:58.006Z,100.00
2023-04-03T04:42:27.780Z,100.00
2023-04-03T04:44:57.298Z,100.00
2023-04-03T04:47:29.449Z,100.00
2023-04-03T04:49:59.353Z,100.00
2023-04-03T04:52:28.903Z,100.00
2023-04-03T04:54:58.408Z,100.00
2023-04-03T04:57:28.093Z,100.00
2023-04-03T04:59:57.622Z,100.00
2023-04-03T05:02:32.857Z,100.00
2023-04-03T05:05:04.840Z,100.00
2023-04-03T05:07:34.743Z,100.00
2023-04-03T05:10:04.673Z,100.00
2023-04-03T05:12:34.202Z,100.00
2023-04-03T05:15:03.708Z,100.00
2023-04-03T05:17:35.903Z,100.00
2023-04-03T05:20:06.640Z,100.00
2023-04-03T05:22:36.722Z,100.00
2023-04-03T05:25:06.746Z,100.00
2023-04-03T05:27:36.647Z,100.00
2023-04-03T05:30:06.703Z,100.00
2023-04-03T05:32:42.107Z,100.00
2023-04-03T05:35:12.866Z,100.00
2023-04-03T05:37:42.677Z,100.00
2023-04-03T05:40:13.392Z,100.00
2023-04-03T05:42:43.056Z,100.00
2023-04-03T05:45:13.462Z,100.00
2023-04-03T05:47:45.983Z,100.00
2023-04-03T05:50:15.860Z,100.00
2023-04-03T05:52:49.842Z,100.00
2023-04-03T05:55:19.725Z,100.00
2023-04-03T05:57:49.276Z,100.00
2023-04-03T06:00:19.588Z,100.00
2023-04-03T06:02:51.842Z,100.00
2023-04-03T06:05:28.932Z,100.00
2023-04-03T06:07:58.869Z,100.00
2023-04-03T06:10:28.491Z,100.00
2023-04-03T06:12:58.043Z,100.00
2023-04-03T06:15:27.654Z,100.00
2023-04-03T06:18:00.018Z,98.90
2023-04-03T06:20:29.686Z,100.00
2023-04-03T06:22:59.422Z,100.00
2023-04-03T06:25:28.982Z,99.87
2023-04-03T06:27:59.088Z,95.81
2023-04-03T06:30:28.686Z,95.29
2023-04-03T06:33:00.903Z,99.38
2023-04-03T06:35:31.585Z,99.11
2023-04-03T06:38:01.233Z,99.97
2023-04-03T06:40:30.872Z,99.58
2023-04-03T06:43:00.449Z,100.00
2023-04-03T06:45:29.966Z,100.00
2023-04-03T06:48:02.643Z,100.00
2023-04-03T06:50:32.322Z,97.91
2023-04-03T06:53:02.099Z,100.00
2023-04-03T06:55:31.690Z,98.50
2023-04-03T06:58:01.698Z,93.61
2023-04-03T07:00:31.832Z,92.37
2023-04-03T07:03:04.052Z,97.02
2023-04-03T07:05:33.639Z,95.84
2023-04-03T07:08:03.252Z,93.77
2023-04-03T07:10:32.862Z,95.12
2023-04-03T07:13:02.906Z,99.33
2023-04-03T07:15:32.490Z,97.71
2023-04-03T07:18:05.768Z,96.86
2023-04-03T07:20:35.547Z,94.87
2023-04-03T07:23:05.367Z,93.80
2023-04-03T07:25:35.930Z,91.43
2023-04-03T07:28:05.778Z,86.75
2023-04-03T07:30:35.336Z,90.29
2023-04-03T07:33:07.593Z,94.20
2023-04-03T07:35:37.895Z,95.77
2023-04-03T07:38:07.695Z,89.64
2023-04-03T07:40:37.661Z,87.78
2023-04-03T07:43:07.803Z,78.24
2023-04-03T07:45:39.151Z,76.61
2023-04-03T07:48:11.540Z,80.66
2023-04-03T07:50:41.394Z,81.58
2023-04-03T07:53:11.075Z,80.66
2023-04-03T07:55:44.152Z,86.35
2023-04-03T07:58:15.714Z,89.21
2023-04-03T08:00:45.715Z,80.46
2023-04-03T08:03:19.110Z,78.09
2023-04-03T08:05:50.415Z,74.44
2023-04-03T08:08:22.407Z,69.78
2023-04-03T08:10:52.929Z,73.42
2023-04-03T08:13:23.680Z,76.18
2023-04-03T08:15:53.300Z,74.98
2023-04-03T08:18:25.832Z,76.44
2023-04-03T08:20:55.867Z,73.86
2023-04-03T08:23:25.714Z,70.73
2023-04-03T08:25:55.359Z,71.93
2023-04-03T08:28:24.851Z,71.66
2023-04-03T08:30:54.397Z,70.03
2023-04-03T08:33:26.542Z,71.99
2023-04-03T08:35:56.476Z,72.72
2023-04-03T08:38:26.023Z,73.56
2023-04-03T08:41:04.765Z,74.49
2023-04-03T08:43:45.364Z,70.44
2023-04-03T08:46:18.882Z,70.01
2023-04-03T08:48:52.944Z,70.55
2023-04-03T08:51:24.527Z,67.93
2023-04-03T08:54:00.744Z,66.91
2023-04-03T08:56:30.449Z,66.78
2023-04-03T08:59:02.518Z,63.52
2023-04-03T09:01:38.744Z,60.79
2023-04-03T09:04:16.127Z,60.35
2023-04-03T09:06:50.003Z,52.11
2023-04-03T09:09:29.012Z,52.56
2023-04-03T09:12:10.563Z,56.40
2023-04-03T09:14:43.521Z,56.04
2023-04-03T09:17:20.519Z,53.69
2023-04-03T09:20:00.884Z,50.08
2023-04-03T09:22:41.774Z,54.13
2023-04-03T09:25:19.014Z,55.05
2023-04-03T09:27:49.191Z,51.80
2023-04-03T09:30:20.147Z,51.01
2023-04-03T09:32:51.173Z,51.44
2023-04-03T09:35:36.337Z,51.74
2023-04-03T09:38:23.048Z,53.36
2023-04-03T09:40:53.900Z,58.70
2023-04-03T09:43:29.018Z,57.70
2023-04-03T09:46:00.519Z,54.32
2023-04-03T09:48:30.373Z,50.90
2023-04-03T09:51:05.409Z,51.51
2023-04-03T09:53:39.269Z,53.16
2023-04-03T09:56:24.479Z,56.02
2023-04-03T09:58:56.339Z,56.17
2023-04-03T10:01:31.985Z,55.41
2023-04-03T10:04:11.124Z,55.30
2023-04-03T10:06:48.471Z,53.28
2023-04-03T10:09:23.938Z,50.94
2023-04-03T10:12:13.315Z,53.99
2023-04-03T10:14:44.346Z,54.65
2023-04-03T10:17:22.568Z,55.95
2023-04-03T10:19:58.971Z,54.46
2023-04-03T10:22:40.868Z,51.37
2023-04-03T10:25:24.601Z,55.98
2023-04-03T10:28:02.758Z,56.90
2023-04-03T10:30:51.178Z,60.42
2023-04-03T10:33:49.819Z,58.61
2023-04-03T10:36:27.482Z,54.63
2023-04-03T10:39:05.857Z,50.86
2023-04-03T10:41:47.659Z,51.42
2023-04-03T10:44:29.966Z,53.16
2023-04-03T10:47:06.073Z,54.19
2023-04-03T10:49:42.543Z,52.70
2023-04-03T10:52:20.618Z,54.29
2023-04-03T10:55:06.253Z,53.33
2023-04-03T10:57:35.859Z,49.28
2023-04-03T11:00:10.093Z,52.43
2023-04-03T11:02:45.564Z,54.85
2023-04-03T11:05:25.314Z,56.08
2023-04-03T11:07:57.295Z,56.42
2023-04-03T11:10:39.898Z,52.71
2023-04-03T11:13:15.235Z,47.75
2023-04-03T11:15:45.726Z,50.27
2023-04-03T11:18:21.026Z,53.17
2023-04-03T11:20:57.591Z,54.84
2023-04-03T11:23:35.557Z,54.89
2023-04-03T11:26:17.389Z,54.39
2023-04-03T11:28:47.663Z,51.63
2023-04-03T11:31:32.189Z,49.19
2023-04-03T11:34:11.904Z,47.18
2023-04-03T11:36:48.498Z,47.07
2023-04-03T11:39:29.340Z,47.11
2023-04-03T11:42:18.687Z,47.66
2023-04-03T11:44:48.315Z,46.51
2023-04-03T11:47:49.748Z,45.41
2023-04-03T11:50:44.129Z,43.49
2023-04-03T11:53:36.978Z,45.47
2023-04-03T11:56:31.507Z,47.27
2023-04-03T11:59:25.901Z,48.45
2023-04-03T12:01:56.883Z,49.18
2023-04-03T12:04:30.282Z,49.64
2023-04-03T12:07:17.988Z,48.26
2023-04-03T12:10:05.942Z,50.13
2023-04-03T12:12:39.545Z,49.45
2023-04-03T12:15:54.962Z,48.50
2023-04-03T12:19:04.631Z,49.07
2023-04-03T12:22:13.287Z,47.12
2023-04-03T12:24:44.237Z,48.65
2023-04-03T12:27:42.078Z,50.64
2023-04-03T12:30:24.400Z,51.94
2023-04-03T12:33:24.568Z,52.15
2023-04-03T12:36:08.140Z,52.23
2023-04-03T12:38:53.124Z,52.07
2023-04-03T12:41:31.685Z,49.42
2023-04-03T12:44:20.519Z,48.77
2023-04-03T12:46:52.726Z,51.50
2023-04-03T12:49:42.767Z,51.64
2023-04-03T12:52:26.606Z,52.34
2023-04-03T12:54:57.501Z,51.93
2023-04-03T12:57:30.340Z,52.18
2023-04-03T13:00:01.020Z,49.00
2023-04-03T13:02:32.470Z,49.99
2023-04-03T13:05:08.603Z,49.73
2023-04-03T13:07:44.637Z,50.22
2023-04-03T13:10:20.031Z,49.20
2023-04-03T13:12:51.209Z,48.45
2023-04-03T13:15:24.341Z,47.73
2023-04-03T13:17:56.311Z,48.54
2023-04-03T13:20:29.957Z,48.79
2023-04-03T13:23:06.483Z,48.59
2023-04-03T13:25:40.292Z,50.02
2023-04-03T13:28:14.740Z,49.01
2023-04-03T13:30:57.593Z,47.99
2023-04-03T13:33:29.897Z,46.94
2023-04-03T13:36:01.833Z,46.41
2023-04-03T13:38:37.454Z,47.37
2023-04-03T13:41:24.974Z,48.74
2023-04-03T13:44:00.618Z,48.04
2023-04-03T13:46:38.389Z,46.45
2023-04-03T13:49:22.592Z,46.55
2023-04-03T13:52:04.310Z,46.59
2023-04-03T13:54:40.879Z,45.96
2023-04-03T13:57:18.836Z,46.81
2023-04-03T13:59:48.596Z,47.39
2023-04-03T14:02:22.893Z,46.88
2023-04-03T14:04:59.275Z,47.04
2023-04-03T14:07:30.330Z,46.58
2023-04-03T14:10:02.521Z,47.04
2023-04-03T14:12:37.370Z,46.91
2023-04-03T14:15:19.517Z,48.03
2023-04-03T14:17:49.104Z,49.04
2023-04-03T14:20:21.652Z,47.69
2023-04-03T14:22:52.463Z,46.24
2023-04-03T14:25:26.957Z,45.80
2023-04-03T14:27:57.500Z,44.63
2023-04-03T14:30:31.240Z,44.63
2023-04-03T14:33:02.025Z,45.38
2023-04-03T14:35:32.165Z,44.56
2023-04-03T14:38:01.784Z,44.10
2023-04-03T14:40:34.044Z,44.75
2023-04-03T14:43:03.657Z,44.68
2023-04-03T14:45:33.371Z,45.51
2023-04-03T14:48:03.218Z,45.57
2023-04-03T14:50:32.813Z,46.15
2023-04-03T14:53:03.173Z,46.93
2023-04-03T14:55:36.394Z,47.49
2023-04-03T14:58:06.154Z,48.56
2023-04-03T15:00:35.863Z,46.69
2023-04-03T15:03:05.593Z,45.98
2023-04-03T15:05:35.370Z,45.55
2023-04-03T15:08:05.087Z,46.27
2023-04-03T15:10:37.433Z,47.30
2023-04-03T15:13:07.212Z,47.63
2023-04-03T15:15:43.009Z,48.53
2023-04-03T15:18:19.372Z,48.88
2023-04-03T15:20:49.339Z,48.32
2023-04-03T15:23:20.184Z,49.35
2023-04-03T15:25:52.864Z,48.83
2023-04-03T15:28:27.220Z,49.65
2023-04-03T15:30:56.826Z,50.55
2023-04-03T15:33:26.994Z,50.60
2023-04-03T15:36:06.518Z,49.84
2023-04-03T15:38:39.277Z,50.82
2023-04-03T15:41:11.601Z,52.02
2023-04-03T15:43:41.228Z,51.93
2023-04-03T15:46:11.225Z,53.33
2023-04-03T15:48:40.968Z,52.76
2023-04-03T15:51:10.609Z,52.42
2023-04-03T15:53:40.194Z,53.70
2023-04-03T15:56:13.025Z,54.23
2023-04-03T15:58:42.712Z,54.44
2023-04-03T16:01:13.792Z,54.84
2023-04-03T16:03:46.535Z,55.11
2023-04-03T16:06:16.858Z,53.74
2023-04-03T16:08:47.434Z,54.65
2023-04-03T16:11:19.594Z,55.14
2023-04-03T16:13:49.162Z,55.57
2023-04-03T16:16:19.002Z,54.59
2023-04-03T16:18:49.131Z,54.65
2023-04-03T16:21:19.614Z,55.67
2023-04-03T16:23:49.313Z,56.67
2023-04-03T16:26:21.485Z,56.61
2023-04-03T16:28:51.279Z,57.16
2023-04-03T16:31:21.098Z,56.71
2023-04-03T16:33:50.846Z,56.16
2023-04-03T16:36:20.569Z,56.19
2023-04-03T16:38:50.402Z,56.26
2023-04-03T16:41:22.591Z,56.86
2023-04-03T16:43:52.260Z,57.08
2023-04-03T16:46:21.956Z,57.48
2023-04-03T16:48:51.507Z,57.91
2023-04-03T16:51:21.099Z,58.16
2023-04-03T16:53:50.652Z,58.41
2023-04-03T16:56:23.282Z,57.89
2023-04-03T16:58:52.952Z,58.76
2023-04-03T17:01:24.531Z,59.47
2023-04-03T17:03:54.440Z,59.63
2023-04-03T17:06:26.090Z,59.39
2023-04-03T17:08:56.340Z,60.08
2023-04-03T17:11:29.398Z,60.01
2023-04-03T17:13:58.983Z,59.72
2023-04-03T17:16:29.771Z,58.97
2023-04-03T17:18:59.821Z,57.83
2023-04-03T17:21:29.684Z,59.39
2023-04-03T17:24:02.663Z,59.71
2023-04-03T17:26:34.853Z,60.33
2023-04-03T17:29:04.424Z,60.66
2023-04-03T17:31:34.268Z,60.25
2023-04-03T17:34:04.675Z,60.69
2023-04-03T17:36:35.763Z,60.84
2023-04-03T17:39:05.532Z,61.05
2023-04-03T17:41:37.918Z,60.03
2023-04-03T17:44:07.560Z,59.79
2023-04-03T17:46:37.188Z,60.49
2023-04-03T17:49:07.279Z,61.04
2023-04-03T17:51:37.178Z,61.39
2023-04-03T17:54:06.912Z,61.45
2023-04-03T17:56:39.451Z,62.21
2023-04-03T17:59:09.252Z,61.93
2023-04-03T18:01:41.349Z,62.61
2023-04-03T18:04:11.185Z,61.16
2023-04-03T18:06:44.282Z,62.65
2023-04-03T18:09:16.972Z,62.84
2023-04-03T18:11:51.110Z,64.07
2023-04-03T18:14:24.639Z,63.56
2023-04-03T18:16:54.485Z,64.00
2023-04-03T18:19:24.212Z,64.22
2023-04-03T18:21:54.304Z,63.29
2023-04-03T18:24:25.414Z,63.47
2023-04-03T18:27:01.449Z,62.79
2023-04-03T18:29:33.516Z,62.97
2023-04-03T18:32:05.593Z,62.61
2023-04-03T18:34:35.597Z,63.88
2023-04-03T18:37:06.253Z,64.11
2023-04-03T18:39:36.309Z,64.22
2023-04-03T18:42:13.173Z,64.48
2023-04-03T18:44:44.209Z,64.69
2023-04-03T18:47:14.586Z,65.06
2023-04-03T18:49:46.046Z,65.43
2023-04-03T18:52:16.204Z,66.75
2023-04-03T18:54:45.818Z,67.88
2023-04-03T18:57:17.917Z,68.92
2023-04-03T18:59:47.460Z,70.10
2023-04-03T19:02:18.808Z,70.53
2023-04-03T19:04:48.921Z,70.47
2023-04-03T19:07:18.539Z,69.36
2023-04-03T19:09:48.321Z,69.69
2023-04-03T19:12:21.065Z,70.07
2023-04-03T19:14:50.696Z,69.56
2023-04-03T19:17:20.371Z,70.43
2023-04-03T19:19:50.017Z,70.30
2023-04-03T19:22:19.653Z,70.85
2023-04-03T19:24:49.275Z,71.25
2023-04-03T19:27:21.388Z,72.24
2023-04-03T19:29:51.830Z,72.95
2023-04-03T19:32:21.497Z,72.79
2023-04-03T19:34:51.253Z,73.16
2023-04-03T19:37:21.141Z,73.32
2023-04-03T19:39:50.812Z,73.82
2023-04-03T19:42:23.958Z,73.89
2023-04-03T19:44:54.747Z,74.81
2023-04-03T19:47:24.890Z,75.61
2023-04-03T19:49:54.701Z,75.48
2023-04-03T19:52:24.274Z,76.57
2023-04-03T19:54:53.851Z,76.57
2023-04-03T19:57:26.081Z,76.66
2023-04-03T19:59:55.776Z,73.00
2023-04-03T20:02:25.336Z,74.37
2023-04-03T20:04:55.413Z,74.52
2023-04-03T20:07:25.322Z,74.78
2023-04-03T20:09:54.865Z,74.60
2023-04-03T20:12:27.615Z,75.54
2023-04-03T20:15:00.154Z,75.40
2023-04-03T20:17:30.047Z,74.67
2023-04-03T20:20:01.772Z,74.48
2023-04-03T20:22:31.711Z,73.76
2023-04-03T20:25:06.420Z,72.33
2023-04-03T20:27:39.745Z,71.23
2023-04-03T20:30:11.637Z,71.50
2023-04-03T20:32:41.215Z,73.06
2023-04-03T20:35:11.450Z,72.45
2023-04-03T20:37:42.487Z,72.26
2023-04-03T20:40:13.570Z,73.28
2023-04-03T20:42:46.501Z,73.88
2023-04-03T20:45:16.186Z,74.53
2023-04-03T20:47:46.047Z,75.13
2023-04-03T20:50:15.759Z,75.89
2023-04-03T20:52:45.352Z,76.08
2023-04-03T20:55:14.885Z,76.73
2023-04-03T20:57:54.266Z,76.97
2023-04-03T21:00:24.628Z,76.28
2023-04-03T21:02:57.165Z,77.04
2023-04-03T21:05:30.475Z,76.28
2023-04-03T21:08:30.146Z,76.39
2023-04-03T21:11:31.785Z,76.38
2023-04-03T21:14:33.717Z,74.85
2023-04-03T21:17:03.025Z,75.06
2023-04-03T21:19:35.580Z,74.60
2023-04-03T21:22:05.167Z,74.57
2023-04-03T21:24:34.779Z,74.73
2023-04-03T21:27:04.944Z,75.34
2023-04-03T21:29:34.565Z,75.60
2023-04-03T21:32:04.505Z,76.29
2023-04-03T21:34:36.954Z,76.66
2023-04-03T21:37:08.928Z,77.15
2023-04-03T21:39:38.650Z,77.67
2023-04-03T21:42:08.241Z,78.64
2023-04-03T21:44:38.340Z,79.48
2023-04-03T21:47:08.010Z,79.45
2023-04-03T21:49:40.507Z,79.77
2023-04-03T21:52:10.159Z,80.08
2023-04-03T21:54:39.695Z,80.34
2023-04-03T21:57:11.796Z,80.68
2023-04-03T21:59:42.099Z,81.22
2023-04-03T22:02:11.805Z,81.54
2023-04-03T22:04:44.004Z,82.49
2023-04-03T22:07:13.562Z,82.56
2023-04-03T22:09:43.110Z,82.82
2023-04-03T22:12:12.987Z,82.83
2023-04-03T22:14:42.560Z,83.15
2023-04-03T22:17:12.348Z,83.38
2023-04-03T22:19:44.426Z,83.67
2023-04-03T22:22:14.386Z,84.98
2023-04-03T22:24:43.958Z,85.77
2023-04-03T22:27:13.467Z,86.16
2023-04-03T22:29:43.096Z,87.16
2023-04-03T22:32:12.744Z,88.00
2023-04-03T22:34:44.853Z,87.77
2023-04-03T22:37:14.362Z,88.50
2023-04-03T22:39:43.924Z,88.27
2023-04-03T22:42:13.413Z,88.95
2023-04-03T22:44:42.974Z,88.70
2023-04-03T22:47:12.951Z,88.05
2023-04-03T22:49:45.037Z,88.34
2023-04-03T22:52:14.569Z,88.47
2023-04-03T22:54:44.123Z,87.75
2023-04-03T22:57:13.666Z,88.52
2023-04-03T22:59:43.193Z,88.20
2023-04-03T23:02:12.961Z,87.83
2023-04-03T23:04:45.193Z,87.64
2023-04-03T23:07:15.450Z,87.56
2023-04-03T23:09:44.943Z,87.93
2023-04-03T23:12:14.562Z,88.23
2023-04-03T23:14:44.051Z,89.39
2023-04-03T23:17:13.579Z,91.50
2023-04-03T23:19:45.692Z,92.60
2023-04-03T23:22:15.334Z,93.42
2023-04-03T23:24:45.306Z,92.90
2023-04-03T23:27:14.823Z,91.63
2023-04-03T23:29:44.818Z,91.52
2023-04-03T23:32:14.363Z,91.40
2023-04-03T23:34:46.617Z,91.20
2023-04-03T23:37:16.594Z,90.90
2023-04-03T23:39:46.486Z,90.57
2023-04-03T23:42:16.088Z,90.39
2023-04-03T23:44:45.927Z,90.17
2023-04-03T23:47:15.411Z,90.36
2023-04-03T23:49:47.530Z,89.27
2023-04-03T23:52:17.502Z,89.45
2023-04-03T23:54:47.084Z,90.34
2023-04-03T23:57:16.682Z,89.46
2023-04-03T23:59:46.382Z,90.05
